Ati Airport

METAR FTTJ TAF FTTJ
30 °C
°C
/
°C
53m
Età
14:53:22
LT
13:53
UTC
0 ft

1.000

2.000

3.000

4.000

5.000

SCT 3.000
VFR
<?= Yii::t('app', 'Wind direction') ?> <?= Yii::t('app', 'of'); ?>
270°
18:29
Tramonto
70%
Umidità
Taglio del vento
Chiuso/Neve
Raggio visivo RWY
Condizione della RWY
Visibilità verticale
Visibilità minima
CAVOK
Tendenza
Correzione
Rapporto speciale
1011 hPa
QNH
METAR FTTJ 131300Z 27005KT 240V310 8000 SCT030 30/24 Q1011 NOSIG
Nubi sparse
0 kt
0 kt
14:00
VFR
8 kt
15:00
VFR
8 kt
16:00
VFR
8 kt
17:00
VFR
8 kt
18:00
VFR
8 kt
19:00
VFR
8 kt
20:00
VFR
8 kt
8 km
Vista
No
Base nuvolosa
5 kt
Vento
metar-taf.com/FTTI

Metar-Taf.com

Decodificatore visivo